LGL513 LIPZ-ELLX
Flight info
| Callsign | LGL513 |
|---|---|
| Flight time | 1h 8m |
| Altitude | 34000 |
| Route | ROKIB DCT DIKEM DCT UNTAD DCT RESIA DCT ELMUR DCT RIPUS DCT DITON DCT HOC DCT LUL DCT EPL G21 GIVOR |
| Aircraft | B738/M-SDE2E3FGHIRWXY/LB1 |
Departure
| Time | 2026-05-06 13:11 |
|---|---|
| Airport | Venice Marco Polo Airport (LIPZ) |
Arrival
| Time | 2026-05-06 14:19 |
|---|---|
| Airport | Luxembourg-Findel International Airport (ELLX) |
| Time | Latitude | Longitude | Altitude | Speed | Heading |
|---|---|---|---|---|---|
| 2026-05-06 12:45 | 45.50079 | 12.33958 | 6 ft | 0 kts | 311° |
| 2026-05-06 13:03 | 45.50074 | 12.33966 | 15 ft | 3 kts | 310° |
| 2026-05-06 13:03 | 45.50062 | 12.33989 | 14 ft | 3 kts | 303° |
| 2026-05-06 13:03 | 45.50051 | 12.34013 | 15 ft | 3 kts | 295° |
| 2026-05-06 13:03 | 45.50044 | 12.34040 | 15 ft | 3 kts | 284° |
| 2026-05-06 13:04 | 45.50041 | 12.34056 | 13 ft | 0 kts | 278° |
| 2026-05-06 13:07 | 45.50039 | 12.34049 | 13 ft | 1 kts | 238° |
| 2026-05-06 13:07 | 45.50029 | 12.34051 | 13 ft | 2 kts | 168° |
| 2026-05-06 13:07 | 45.50004 | 12.34058 | 12 ft | 6 kts | 170° |
| 2026-05-06 13:08 | 45.49952 | 12.34064 | 11 ft | 8 kts | 177° |
| 2026-05-06 13:08 | 45.49892 | 12.34039 | 12 ft | 10 kts | 219° |
| 2026-05-06 13:08 | 45.49830 | 12.33962 | 12 ft | 14 kts | 222° |
| 2026-05-06 13:08 | 45.49751 | 12.33861 | 14 ft | 16 kts | 222° |
| 2026-05-06 13:09 | 45.49698 | 12.33792 | 16 ft | 16 kts | 222° |
| 2026-05-06 13:09 | 45.49604 | 12.33672 | 16 ft | 20 kts | 222° |
| 2026-05-06 13:09 | 45.49495 | 12.33626 | 17 ft | 12 kts | 137° |
| 2026-05-06 13:09 | 45.49440 | 12.33716 | 16 ft | 13 kts | 129° |
| 2026-05-06 13:10 | 45.49448 | 12.33820 | 15 ft | 12 kts | 50° |
| 2026-05-06 13:10 | 45.49495 | 12.33883 | 13 ft | 18 kts | 41° |
| 2026-05-06 13:10 | 45.49771 | 12.34237 | 10 ft | 90 kts | 42° |
| 2026-05-06 13:10 | 45.50406 | 12.35054 | 11 ft | 153 kts | 42° |
| 2026-05-06 13:11 | 45.51268 | 12.36166 | 403 ft | 173 kts | 46° |
| 2026-05-06 13:11 | 45.52145 | 12.37384 | 1207 ft | 180 kts | 46° |
| 2026-05-06 13:11 | 45.53037 | 12.38663 | 2153 ft | 192 kts | 48° |
| 2026-05-06 13:11 | 45.53729 | 12.40440 | 2604 ft | 215 kts | 88° |
| 2026-05-06 13:12 | 45.53563 | 12.42523 | 3296 ft | 214 kts | 104° |
| 2026-05-06 13:12 | 45.53297 | 12.44641 | 3856 ft | 220 kts | 103° |
| 2026-05-06 13:12 | 45.53050 | 12.46817 | 4386 ft | 224 kts | 103° |
| 2026-05-06 13:12 | 45.52813 | 12.49025 | 4973 ft | 226 kts | 103° |
| 2026-05-06 13:13 | 45.52393 | 12.51180 | 5420 ft | 231 kts | 127° |
| 2026-05-06 13:13 | 45.51150 | 12.52618 | 5649 ft | 237 kts | 165° |
| 2026-05-06 13:13 | 45.49501 | 12.52807 | 5955 ft | 249 kts | 194° |
| 2026-05-06 13:13 | 45.47925 | 12.51765 | 6534 ft | 255 kts | 220° |
| 2026-05-06 13:14 | 45.46878 | 12.49740 | 7249 ft | 259 kts | 249° |
| 2026-05-06 13:14 | 45.46748 | 12.47173 | 8023 ft | 268 kts | 277° |
| 2026-05-06 13:14 | 45.47250 | 12.44579 | 8740 ft | 275 kts | 283° |
| 2026-05-06 13:14 | 45.47839 | 12.41958 | 9465 ft | 279 kts | 283° |
| 2026-05-06 13:15 | 45.48425 | 12.39333 | 10158 ft | 283 kts | 283° |
| 2026-05-06 13:15 | 45.49025 | 12.36548 | 10376 ft | 305 kts | 283° |
| 2026-05-06 13:15 | 45.49652 | 12.33541 | 10559 ft | 327 kts | 282° |
| 2026-05-06 13:15 | 45.50305 | 12.30361 | 10915 ft | 341 kts | 282° |
| 2026-05-06 13:16 | 45.50971 | 12.27082 | 11503 ft | 346 kts | 282° |
| 2026-05-06 13:16 | 45.51637 | 12.23772 | 12235 ft | 350 kts | 282° |
| 2026-05-06 13:16 | 45.52312 | 12.20409 | 13061 ft | 356 kts | 281° |
| 2026-05-06 13:16 | 45.53032 | 12.16997 | 13906 ft | 361 kts | 282° |
| 2026-05-06 13:17 | 45.53790 | 12.13548 | 14688 ft | 364 kts | 283° |
| 2026-05-06 13:17 | 45.54552 | 12.10110 | 15563 ft | 364 kts | 282° |
| 2026-05-06 13:17 | 45.55314 | 12.06648 | 16290 ft | 369 kts | 282° |
| 2026-05-06 13:17 | 45.56079 | 12.03142 | 16985 ft | 372 kts | 282° |
| 2026-05-06 13:18 | 45.56849 | 11.99595 | 17671 ft | 375 kts | 282° |
| 2026-05-06 13:18 | 45.57819 | 11.96101 | 18300 ft | 387 kts | 295° |
| 2026-05-06 13:18 | 45.59530 | 11.93059 | 18862 ft | 401 kts | 312° |
| 2026-05-06 13:18 | 45.61850 | 11.90826 | 19475 ft | 413 kts | 328° |
| 2026-05-06 13:19 | 45.64507 | 11.89067 | 20073 ft | 418 kts | 330° |
| 2026-05-06 13:19 | 45.67144 | 11.87389 | 20585 ft | 422 kts | 330° |
| 2026-05-06 13:19 | 45.69820 | 11.85624 | 21121 ft | 425 kts | 329° |
| 2026-05-06 13:19 | 45.72498 | 11.83804 | 21674 ft | 427 kts | 328° |
| 2026-05-06 13:20 | 45.75186 | 11.81946 | 22219 ft | 430 kts | 328° |
| 2026-05-06 13:20 | 45.77887 | 11.80071 | 22749 ft | 433 kts | 328° |
| 2026-05-06 13:20 | 45.80606 | 11.78184 | 23268 ft | 436 kts | 327° |
| 2026-05-06 13:20 | 45.83350 | 11.76282 | 23738 ft | 440 kts | 327° |
| 2026-05-06 13:21 | 45.86113 | 11.74365 | 24162 ft | 443 kts | 327° |
| 2026-05-06 13:21 | 45.88898 | 11.72439 | 24586 ft | 446 kts | 327° |
| 2026-05-06 13:21 | 45.91560 | 11.70212 | 24857 ft | 440 kts | 315° |
| 2026-05-06 13:21 | 45.93789 | 11.67278 | 25283 ft | 430 kts | 304° |
| 2026-05-06 13:22 | 45.95564 | 11.63888 | 25725 ft | 420 kts | 292° |
| 2026-05-06 13:22 | 45.96908 | 11.60182 | 26152 ft | 418 kts | 289° |
| 2026-05-06 13:22 | 45.98196 | 11.56426 | 26531 ft | 420 kts | 288° |
| 2026-05-06 13:22 | 45.99493 | 11.52653 | 26907 ft | 422 kts | 288° |
| 2026-05-06 13:23 | 46.00816 | 11.48868 | 27276 ft | 425 kts | 289° |
| 2026-05-06 13:23 | 46.02165 | 11.45058 | 27630 ft | 428 kts | 289° |
| 2026-05-06 13:23 | 46.03520 | 11.41247 | 28084 ft | 428 kts | 289° |
| 2026-05-06 13:23 | 46.04860 | 11.37415 | 28444 ft | 429 kts | 288° |
| 2026-05-06 13:24 | 46.06147 | 11.33527 | 28767 ft | 431 kts | 287° |
| 2026-05-06 13:24 | 46.07409 | 11.29609 | 29169 ft | 432 kts | 287° |
| 2026-05-06 13:24 | 46.08665 | 11.25697 | 29818 ft | 427 kts | 286° |
| 2026-05-06 13:24 | 46.09908 | 11.21838 | 30394 ft | 423 kts | 286° |
| 2026-05-06 13:25 | 46.11146 | 11.18001 | 30818 ft | 422 kts | 286° |
| 2026-05-06 13:25 | 46.12371 | 11.14208 | 31171 ft | 422 kts | 286° |
| 2026-05-06 13:25 | 46.13613 | 11.10364 | 31560 ft | 421 kts | 286° |
| 2026-05-06 13:25 | 46.14849 | 11.06539 | 31980 ft | 419 kts | 285° |
| 2026-05-06 13:26 | 46.16082 | 11.02720 | 32292 ft | 419 kts | 285° |
| 2026-05-06 13:26 | 46.17309 | 10.98913 | 32669 ft | 418 kts | 285° |
| 2026-05-06 13:26 | 46.18531 | 10.95116 | 33016 ft | 417 kts | 285° |
| 2026-05-06 13:26 | 46.19752 | 10.91320 | 33329 ft | 416 kts | 285° |
| 2026-05-06 13:27 | 46.20966 | 10.87537 | 33662 ft | 416 kts | 285° |
| 2026-05-06 13:27 | 46.22180 | 10.83749 | 33942 ft | 417 kts | 285° |
| 2026-05-06 13:27 | 46.23419 | 10.79913 | 33904 ft | 421 kts | 286° |
| 2026-05-06 13:28 | 46.25919 | 10.72280 | 33883 ft | 419 kts | 285° |
| 2026-05-06 13:28 | 46.28394 | 10.64720 | 33910 ft | 414 kts | 285° |
| 2026-05-06 13:29 | 46.30850 | 10.57144 | 33884 ft | 417 kts | 285° |
| 2026-05-06 13:29 | 46.33299 | 10.49575 | 33906 ft | 418 kts | 285° |
| 2026-05-06 13:30 | 46.35766 | 10.41928 | 33893 ft | 419 kts | 285° |
| 2026-05-06 13:30 | 46.38231 | 10.34270 | 33856 ft | 420 kts | 285° |
| 2026-05-06 13:31 | 46.40678 | 10.26648 | 33888 ft | 415 kts | 285° |
| 2026-05-06 13:31 | 46.43096 | 10.19086 | 33914 ft | 412 kts | 285° |
| 2026-05-06 13:32 | 46.45493 | 10.11562 | 33897 ft | 414 kts | 285° |
| 2026-05-06 13:32 | 46.48103 | 10.04053 | 33859 ft | 425 kts | 294° |
| 2026-05-06 13:33 | 46.51918 | 9.97299 | 33896 ft | 435 kts | 302° |
| 2026-05-06 13:33 | 46.55978 | 9.90767 | 33898 ft | 436 kts | 302° |
| 2026-05-06 13:34 | 46.60024 | 9.84196 | 33892 ft | 436 kts | 302° |
| 2026-05-06 13:34 | 46.64040 | 9.77592 | 33886 ft | 436 kts | 302° |
| 2026-05-06 13:35 | 46.68057 | 9.70940 | 33871 ft | 438 kts | 302° |
| 2026-05-06 13:35 | 46.72088 | 9.64245 | 33855 ft | 441 kts | 302° |
| 2026-05-06 13:36 | 46.76127 | 9.57528 | 33844 ft | 441 kts | 302° |
| 2026-05-06 13:36 | 46.80159 | 9.50803 | 33807 ft | 443 kts | 302° |
| 2026-05-06 13:37 | 46.84208 | 9.44037 | 33820 ft | 442 kts | 302° |
| 2026-05-06 13:37 | 46.88261 | 9.37244 | 33815 ft | 443 kts | 302° |
| 2026-05-06 13:38 | 46.92315 | 9.30434 | 33815 ft | 443 kts | 302° |
| 2026-05-06 13:38 | 46.96359 | 9.23625 | 33843 ft | 442 kts | 302° |
| 2026-05-06 13:39 | 47.00387 | 9.16822 | 33834 ft | 443 kts | 302° |
| 2026-05-06 13:39 | 47.04425 | 9.09982 | 33851 ft | 445 kts | 302° |
| 2026-05-06 13:40 | 47.08475 | 9.03107 | 33849 ft | 445 kts | 302° |
| 2026-05-06 13:40 | 47.12489 | 8.96283 | 33861 ft | 444 kts | 302° |
| 2026-05-06 13:41 | 47.16096 | 8.89071 | 33865 ft | 431 kts | 289° |
| 2026-05-06 13:41 | 47.17269 | 8.85081 | 33874 ft | 420 kts | 282° |
| 2026-05-06 13:41 | 47.18265 | 8.81050 | 33865 ft | 420 kts | 282° |
| 2026-05-06 13:42 | 47.20003 | 8.73940 | 33872 ft | 419 kts | 282° |
| 2026-05-06 13:42 | 47.22004 | 8.65910 | 33876 ft | 421 kts | 282° |
| 2026-05-06 13:43 | 47.24040 | 8.57816 | 33874 ft | 422 kts | 283° |
| 2026-05-06 13:43 | 47.26082 | 8.49679 | 33876 ft | 425 kts | 283° |
| 2026-05-06 13:44 | 47.28148 | 8.41469 | 33876 ft | 429 kts | 283° |
| 2026-05-06 13:44 | 47.30227 | 8.33197 | 33866 ft | 432 kts | 283° |
| 2026-05-06 13:45 | 47.32295 | 8.24933 | 33864 ft | 433 kts | 283° |
| 2026-05-06 13:45 | 47.35618 | 8.12503 | 33855 ft | 443 kts | 293° |
| 2026-05-06 13:46 | 47.39472 | 8.05229 | 33840 ft | 460 kts | 310° |
| 2026-05-06 13:46 | 47.44320 | 7.99014 | 33848 ft | 463 kts | 313° |
| 2026-05-06 13:47 | 47.49247 | 7.92887 | 33867 ft | 463 kts | 313° |
| 2026-05-06 13:47 | 47.54152 | 7.86696 | 33864 ft | 463 kts | 313° |
| 2026-05-06 13:48 | 47.59027 | 7.80458 | 33882 ft | 463 kts | 313° |
| 2026-05-06 13:48 | 47.63861 | 7.74234 | 33881 ft | 464 kts | 313° |
| 2026-05-06 13:49 | 47.68736 | 7.67941 | 33887 ft | 464 kts | 313° |
| 2026-05-06 13:49 | 47.73592 | 7.61660 | 33881 ft | 463 kts | 313° |
| 2026-05-06 13:50 | 47.78449 | 7.55362 | 33871 ft | 463 kts | 313° |
| 2026-05-06 13:50 | 47.83298 | 7.49060 | 33861 ft | 461 kts | 314° |
| 2026-05-06 13:51 | 47.88119 | 7.42778 | 33827 ft | 460 kts | 314° |
| 2026-05-06 13:51 | 47.92933 | 7.36487 | 33832 ft | 459 kts | 314° |
| 2026-05-06 13:52 | 47.97687 | 7.30259 | 33836 ft | 457 kts | 314° |
| 2026-05-06 13:52 | 48.02463 | 7.23987 | 33850 ft | 457 kts | 314° |
| 2026-05-06 13:53 | 48.07230 | 7.17708 | 33830 ft | 457 kts | 314° |
| 2026-05-06 13:53 | 48.09590 | 7.14598 | 33810 ft | 445 kts | 314° |
| 2026-05-06 13:53 | 48.11879 | 7.11584 | 33808 ft | 430 kts | 314° |
| 2026-05-06 13:54 | 48.14088 | 7.08671 | 33813 ft | 416 kts | 314° |
| 2026-05-06 13:54 | 48.16225 | 7.05846 | 33812 ft | 403 kts | 314° |
| 2026-05-06 13:54 | 48.18289 | 7.03112 | 33805 ft | 390 kts | 314° |
| 2026-05-06 13:54 | 48.20293 | 7.00453 | 33816 ft | 378 kts | 314° |
| 2026-05-06 13:55 | 48.22223 | 6.97889 | 33801 ft | 366 kts | 314° |
| 2026-05-06 13:55 | 48.24129 | 6.95349 | 33842 ft | 368 kts | 314° |
| 2026-05-06 13:55 | 48.28039 | 6.90117 | 33853 ft | 385 kts | 314° |
| 2026-05-06 13:56 | 48.32135 | 6.84635 | 33205 ft | 404 kts | 315° |
| 2026-05-06 13:56 | 48.34265 | 6.81785 | 32188 ft | 417 kts | 315° |
| 2026-05-06 13:56 | 48.36477 | 6.78820 | 30939 ft | 436 kts | 316° |
| 2026-05-06 13:57 | 48.37989 | 6.76795 | 30355 ft | 442 kts | 316° |
| 2026-05-06 13:57 | 48.40285 | 6.73719 | 29800 ft | 441 kts | 316° |
| 2026-05-06 13:57 | 48.43305 | 6.69671 | 28885 ft | 440 kts | 316° |
| 2026-05-06 13:57 | 48.45606 | 6.66578 | 27876 ft | 446 kts | 317° |
| 2026-05-06 13:58 | 48.47177 | 6.64463 | 27358 ft | 447 kts | 317° |
| 2026-05-06 13:58 | 48.49456 | 6.61391 | 26807 ft | 442 kts | 317° |
| 2026-05-06 13:58 | 48.51738 | 6.58312 | 26327 ft | 436 kts | 317° |
| 2026-05-06 13:58 | 48.53984 | 6.55276 | 25815 ft | 432 kts | 317° |
| 2026-05-06 13:59 | 48.56209 | 6.52264 | 25264 ft | 428 kts | 317° |
| 2026-05-06 13:59 | 48.58422 | 6.49265 | 24701 ft | 425 kts | 317° |
| 2026-05-06 13:59 | 48.60615 | 6.46290 | 24212 ft | 422 kts | 317° |
| 2026-05-06 13:59 | 48.62799 | 6.43375 | 23753 ft | 417 kts | 321° |
| 2026-05-06 14:00 | 48.65334 | 6.41269 | 23125 ft | 418 kts | 342° |
| 2026-05-06 14:00 | 48.68172 | 6.40495 | 22638 ft | 413 kts | 358° |
| 2026-05-06 14:00 | 48.71011 | 6.40953 | 22072 ft | 410 kts | 14° |
| 2026-05-06 14:00 | 48.73760 | 6.42038 | 21523 ft | 407 kts | 15° |
| 2026-05-06 14:01 | 48.76466 | 6.43184 | 21053 ft | 402 kts | 16° |
| 2026-05-06 14:01 | 48.79151 | 6.44334 | 20528 ft | 399 kts | 16° |
| 2026-05-06 14:01 | 48.81817 | 6.45461 | 19968 ft | 397 kts | 15° |
| 2026-05-06 14:01 | 48.84476 | 6.46569 | 19512 ft | 393 kts | 15° |
| 2026-05-06 14:02 | 48.87101 | 6.47649 | 19054 ft | 389 kts | 15° |
| 2026-05-06 14:02 | 48.89720 | 6.48720 | 18577 ft | 387 kts | 15° |
| 2026-05-06 14:02 | 48.92309 | 6.49774 | 18151 ft | 384 kts | 15° |
| 2026-05-06 14:02 | 48.94849 | 6.50808 | 17657 ft | 381 kts | 15° |
| 2026-05-06 14:03 | 48.97401 | 6.51848 | 17111 ft | 378 kts | 15° |
| 2026-05-06 14:03 | 48.99938 | 6.52882 | 16619 ft | 375 kts | 15° |
| 2026-05-06 14:03 | 49.02453 | 6.53908 | 16107 ft | 373 kts | 14° |
| 2026-05-06 14:03 | 49.04949 | 6.54929 | 15606 ft | 370 kts | 14° |
| 2026-05-06 14:04 | 49.07421 | 6.55940 | 15172 ft | 366 kts | 14° |
| 2026-05-06 14:04 | 49.09874 | 6.56946 | 14752 ft | 362 kts | 14° |
| 2026-05-06 14:04 | 49.12297 | 6.57939 | 14344 ft | 358 kts | 14° |
| 2026-05-06 14:04 | 49.14694 | 6.58922 | 13942 ft | 355 kts | 14° |
| 2026-05-06 14:05 | 49.17064 | 6.59896 | 13544 ft | 351 kts | 13° |
| 2026-05-06 14:05 | 49.19414 | 6.60862 | 13121 ft | 348 kts | 13° |
| 2026-05-06 14:05 | 49.21749 | 6.61734 | 12705 ft | 344 kts | 5° |
| 2026-05-06 14:05 | 49.24097 | 6.61561 | 12367 ft | 335 kts | 344° |
| 2026-05-06 14:06 | 49.26263 | 6.60310 | 12013 ft | 331 kts | 334° |
| 2026-05-06 14:06 | 49.28362 | 6.58847 | 11612 ft | 331 kts | 333° |
| 2026-05-06 14:06 | 49.30427 | 6.57378 | 11238 ft | 331 kts | 333° |
| 2026-05-06 14:06 | 49.32513 | 6.55903 | 10853 ft | 329 kts | 333° |
| 2026-05-06 14:07 | 49.34558 | 6.54470 | 10483 ft | 326 kts | 333° |
| 2026-05-06 14:07 | 49.36616 | 6.53039 | 10203 ft | 311 kts | 334° |
| 2026-05-06 14:07 | 49.38546 | 6.51706 | 10056 ft | 299 kts | 334° |
| 2026-05-06 14:07 | 49.40413 | 6.50415 | 9948 ft | 292 kts | 334° |
| 2026-05-06 14:08 | 49.42256 | 6.49140 | 9817 ft | 290 kts | 334° |
| 2026-05-06 14:08 | 49.44108 | 6.47855 | 9524 ft | 295 kts | 334° |
| 2026-05-06 14:08 | 49.45978 | 6.46558 | 9201 ft | 294 kts | 334° |
| 2026-05-06 14:08 | 49.47839 | 6.45330 | 8870 ft | 291 kts | 341° |
| 2026-05-06 14:09 | 49.49831 | 6.45028 | 8612 ft | 286 kts | 3° |
| 2026-05-06 14:09 | 49.51796 | 6.44890 | 8348 ft | 283 kts | 340° |
| 2026-05-06 14:09 | 49.53463 | 6.43384 | 8123 ft | 278 kts | 313° |
| 2026-05-06 14:09 | 49.54491 | 6.40917 | 7880 ft | 274 kts | 287° |
| 2026-05-06 14:10 | 49.54773 | 6.38094 | 7637 ft | 271 kts | 266° |
| 2026-05-06 14:10 | 49.54381 | 6.35273 | 7424 ft | 270 kts | 250° |
| 2026-05-06 14:10 | 49.53719 | 6.32560 | 7173 ft | 270 kts | 248° |
| 2026-05-06 14:10 | 49.53038 | 6.29899 | 7105 ft | 262 kts | 248° |
| 2026-05-06 14:11 | 49.52380 | 6.27325 | 6852 ft | 255 kts | 248° |
| 2026-05-06 14:11 | 49.51745 | 6.24820 | 6606 ft | 247 kts | 249° |
| 2026-05-06 14:11 | 49.51136 | 6.22396 | 6398 ft | 238 kts | 248° |
| 2026-05-06 14:11 | 49.50552 | 6.20069 | 6197 ft | 228 kts | 249° |
| 2026-05-06 14:12 | 49.50001 | 6.17864 | 6024 ft | 214 kts | 249° |
| 2026-05-06 14:12 | 49.49481 | 6.15773 | 5806 ft | 205 kts | 249° |
| 2026-05-06 14:12 | 49.48980 | 6.13769 | 5634 ft | 197 kts | 249° |
| 2026-05-06 14:12 | 49.48490 | 6.11807 | 5461 ft | 195 kts | 249° |
| 2026-05-06 14:13 | 49.48014 | 6.09903 | 5298 ft | 192 kts | 250° |
| 2026-05-06 14:13 | 49.47537 | 6.07995 | 5141 ft | 191 kts | 250° |
| 2026-05-06 14:13 | 49.47060 | 6.06088 | 4976 ft | 190 kts | 250° |
| 2026-05-06 14:13 | 49.46812 | 6.04324 | 4817 ft | 189 kts | 276° |
| 2026-05-06 14:14 | 49.47328 | 6.02500 | 4691 ft | 190 kts | 312° |
| 2026-05-06 14:14 | 49.48403 | 6.01273 | 4542 ft | 197 kts | 328° |
| 2026-05-06 14:14 | 49.49599 | 6.00219 | 4349 ft | 198 kts | 330° |
| 2026-05-06 14:14 | 49.50796 | 5.99183 | 4159 ft | 195 kts | 330° |
| 2026-05-06 14:15 | 49.51978 | 5.98226 | 3978 ft | 188 kts | 341° |
| 2026-05-06 14:15 | 49.53230 | 5.98259 | 3769 ft | 181 kts | 26° |
| 2026-05-06 14:15 | 49.54134 | 5.99538 | 3690 ft | 179 kts | 46° |
| 2026-05-06 14:15 | 49.54926 | 6.01010 | 3517 ft | 181 kts | 51° |
| 2026-05-06 14:16 | 49.55669 | 6.02551 | 3334 ft | 176 kts | 52° |
| 2026-05-06 14:16 | 49.56327 | 6.04114 | 3175 ft | 172 kts | 56° |
| 2026-05-06 14:16 | 49.56925 | 6.05690 | 3067 ft | 168 kts | 57° |
| 2026-05-06 14:16 | 49.57492 | 6.07223 | 2988 ft | 159 kts | 57° |
| 2026-05-06 14:17 | 49.58026 | 6.08666 | 2752 ft | 152 kts | 57° |
| 2026-05-06 14:17 | 49.58544 | 6.10089 | 2615 ft | 152 kts | 57° |
| 2026-05-06 14:17 | 49.59070 | 6.11512 | 2366 ft | 153 kts | 56° |
| 2026-05-06 14:17 | 49.59591 | 6.12903 | 2134 ft | 149 kts | 56° |
| 2026-05-06 14:18 | 49.60105 | 6.14305 | 1897 ft | 151 kts | 56° |
| 2026-05-06 14:18 | 49.60630 | 6.15719 | 1694 ft | 153 kts | 57° |
| 2026-05-06 14:18 | 49.61158 | 6.17138 | 1478 ft | 153 kts | 57° |
| 2026-05-06 14:18 | 49.61689 | 6.18583 | 1257 ft | 155 kts | 57° |
| 2026-05-06 14:19 | 49.62203 | 6.19967 | 1211 ft | 134 kts | 59° |
| 2026-05-06 14:19 | 49.62591 | 6.21012 | 1241 ft | 88 kts | 60° |
| 2026-05-06 14:19 | 49.62830 | 6.21654 | 1218 ft | 56 kts | 60° |
| 2026-05-06 14:19 | 49.62960 | 6.22004 | 1214 ft | 25 kts | 59° |
| 2026-05-06 14:20 | 49.63031 | 6.22130 | 1213 ft | 13 kts | 13° |
| 2026-05-06 14:20 | 49.63112 | 6.22081 | 1219 ft | 12 kts | 329° |
| 2026-05-06 14:20 | 49.63175 | 6.22013 | 1227 ft | 9 kts | 305° |
| 2026-05-06 14:20 | 49.63176 | 6.21928 | 1227 ft | 8 kts | 278° |
| 2026-05-06 14:21 | 49.63163 | 6.21884 | 1227 ft | 5 kts | 211° |
| 2026-05-06 14:21 | 49.63136 | 6.21839 | 1225 ft | 7 kts | 239° |
| 2026-05-06 14:21 | 49.63138 | 6.21777 | 1226 ft | 4 kts | 319° |
| 2026-05-06 14:21 | 49.63164 | 6.21754 | 1227 ft | 5 kts | 330° |
| 2026-05-06 14:22 | 49.63211 | 6.21713 | 1229 ft | 10 kts | 330° |
| 2026-05-06 14:22 | 49.63271 | 6.21674 | 1229 ft | 7 kts | 15° |
| 2026-05-06 14:22 | 49.63302 | 6.21715 | 1229 ft | 5 kts | 26° |
| 2026-05-06 14:22 | 49.63329 | 6.21703 | 1229 ft | 4 kts | 329° |
| 2026-05-06 14:23 | 49.63348 | 6.21686 | 1229 ft | 0 kts | 329° |